CheckWX is a tool to help pilots better visualize weather data.  It is not intended as a substitute for an official pre-flight weather briefing.

03:40:32 UTC

KSLC METAR
Salt Lake City International Airport
Salt Lake City, Utah, USA
Current

47 mins ago

KSLC 170254Z 21003KT 10SM BKN042 BKN050 BKN065 04/03 A3004 RMK AO2 RAB24E46 SLP175 VCSH P0000 60002 T00390028 51013 $
Observed
Feb-17 @ 02:54 UTC
Wind
  • 210° at 3 KTS
Visibility
10 SM
Flight Rules
VFR
Cloud Levels
  • Broken at 4,200' AGL
  • Broken at 5,000' AGL
  • Broken at 6,500' AGL
Temperature
C / 39°F
Dewpoint
C / 37°F
Humidity
93%
Altimeter
30.04" Hg
Pressure
1017.32 hPa
Current Rain
0.01"
Previous

2 hours ago

KSLC 170154Z 00000KT 10SM FEW015 BKN039 BKN049 04/02 A3003 RMK AO2 WSHFT 0106 RAE19 SLP171 P0001 T00390022 $
Observed
Feb-17 @ 01:54 UTC
Visibility
10 SM
Flight Rules
VFR
Cloud Levels
  • Few at 1,500' AGL
  • Broken at 3,900' AGL
  • Broken at 4,900' AGL
Temperature
C / 39°F
Dewpoint
C / 36°F
Humidity
87%
Altimeter
30.03" Hg
Pressure
1016.92 hPa
Current Rain
0.01"
Previous

2 hours ago

KSLC 170141Z 04006KT 10SM FEW007 BKN038 BKN050 03/02 A3003 RMK AO2 WSHFT 0106 RAE19 P0001 T00330022 $
Observed
Feb-17 @ 01:41 UTC
Wind
  • 040° at 6 KTS
Visibility
10 SM
Flight Rules
VFR
Cloud Levels
  • Few at 700' AGL
  • Broken at 3,800' AGL
  • Broken at 5,000' AGL
Temperature
C / 37°F
Dewpoint
C / 36°F
Humidity
93%
Altimeter
30.03" Hg
Pressure
1016.92 hPa
Current Rain
0.01"